Malin, Oregon
Current Conditions -  °F | °C
As of 2:53 AM on Saturday 25 Oct 2014 (Local Time) from KLMT Reporting Station
Broken Clouds Broken Clouds  
Wind Chill: 52°   Ceiling: 5000
Heat Index: 52°   Visibility: 10mi
Dew Point: 39°   Wind: 16mph
Humidity: 61%   Direction: 170°S
Pressure: 29.78"   Gusts: 24mph
Location:  42.01°N, 121.41°W
Report Text: KLMT 250953Z AUTO 17014G21KT 10SM BKN050 11/04 A2978 RMK AO2 PK WND 18026/0926 SLP057 T01110039
Loading
Personal Weather Stations






























Interactive Weather Map
Tropical Storm Tracking
New forecast layout! Learn more

10-Day Weather Forecast

Advertisements
Track Severe Weather on mobile